CheckWX is a tool to help pilots better visualize weather data.  It is not intended as a substitute for an official pre-flight weather briefing.

09:36:26 UTC

KSIY METAR
Siskiyou County Airport
Montague, California, USA
Current

43 mins ago

KSIY 250853Z AUTO 05004KT 10SM CLR M01/M10 A3050 RMK AO2 SLP349 T10111100 51006
Observed
Feb-25 @ 08:53 UTC
Wind
  • 050° at 4 KTS
Visibility
10 SM
Flight Rules
VFR
Cloud Levels
  • Clear skies
Temperature
-1°C / 30°F
Dewpoint
-10°C / 14°F
Humidity
51%
Altimeter
30.5" Hg
Pressure
1032.82 hPa
Previous

2 hours ago

KSIY 250753Z AUTO 10003KT 10SM CLR M01/M11 A3049 RMK AO2 SLP348 T10111106 401501072
Observed
Feb-25 @ 07:53 UTC
Wind
  • 100° at 3 KTS
Visibility
10 SM
Flight Rules
VFR
Cloud Levels
  • Clear skies
Temperature
-1°C / 30°F
Dewpoint
-11°C / 12°F
Humidity
47%
Altimeter
30.49" Hg
Pressure
1032.52 hPa
Previous

3 hours ago

KSIY 250653Z AUTO 00000KT 10SM CLR 01/M09 A3049 RMK AO2 SLP347 T00061094
Observed
Feb-25 @ 06:53 UTC
Visibility
10 SM
Flight Rules
VFR
Cloud Levels
  • Clear skies
Temperature
C / 34°F
Dewpoint
-9°C / 16°F
Humidity
48%
Altimeter
30.49" Hg
Pressure
1032.52 hPa